logo
Rechercher aéroport 
image banner adimage banner adimage banner ad
image banner ad

CYWY - Wrigley

Situé à Wrigley, Canada

ICAO - CYWY, IATA - YWY

Données fournies par Airmate  

Information générale

Coordonnées: N63°12'35" W123°26'12"
Élévation : 491 feet MSL.
Variation magnétique : 19.7617° East
Voir autres Aéroports à Northwest Territories

Données opérationnelles

Special qualification required
Heure actuelle UTC:
Heure actuelle locale:
Météo
METAR: CYWY 241800Z 14014KT 20SM BKN016 BKN100 M16/M19 A3022 RMK SC7AS1 AS TR SLP253
Voir NOTAMs / SUP AIP / TFR affectant cet aéroport [VIEW]
Fréquences de communication: [VIEW]

Pistes:

Identifiant RWYQFULongueur (ft)Largeur (ft)SurfaceLDA (ft)
11133°350098GRAVE3005
29313°350098GRAVE3500

Coordonnées de l'aéroport

Adresse: Wrigley Canada

Vue satellite de CYWY